Time;durP1;ratioP1;P1;durP2;ratioP2;P2;SDS_P1;SDS_P2;PMS_P1;PMS_P2;Temp;Humidity;BMP_temperature;BMP_pressure;BME280_temperature;BME280_humidity;BME280_pressure;Samples;Min_cycle;Max_cycle;Signal;HPM_P1;HPM_P2
2023/08/17 00:02:06;;;;;;;;;;;;;;;;;;5060496;28;20368;-65
2023/08/17 00:04:32;;;;;;;;;;;;;;;;;;5060803;28;20336;-64
2023/08/17 00:06:58;;;;;;;;;;;;;;;;;;5059046;28;19913;-65
2023/08/17 00:09:24;;;;;;;;;;;;;;;;;;5053610;28;20284;-65
2023/08/17 00:11:50;;;;;;;;;;;;;;;;;;5052943;28;19917;-65
2023/08/17 00:14:16;;;;;;;;;;;;;;;;;;5057342;28;20422;-65
2023/08/17 00:16:42;;;;;;;;;;;;;;;;;;5071259;28;19912;-65
2023/08/17 00:19:07;;;;;;;;;;;;;;;;;;5071505;28;19962;-65
2023/08/17 00:21:33;;;;;;;;;;;;;;;;;;5072842;28;20451;-65
2023/08/17 00:23:59;;;;;;;;;;;;;;;;;;5066819;28;19920;-65
2023/08/17 00:26:25;;;;;;;;;;;;;;;;;;5055635;28;19963;-64
2023/08/17 00:28:51;;;;;;;;;;;;;;;;;;5060902;28;19912;-70
2023/08/17 00:31:17;;;;;;;;;;;;;;;;;;5067144;28;19930;-70
2023/08/17 00:33:43;;;;;;;;;;;;;;;;;;5062573;28;20376;-70
2023/08/17 00:36:09;;;;;;;;;;;;;;;;;;5070868;28;19958;-70
2023/08/17 00:38:35;;;;;;;;;;;;;;;;;;5072936;28;20024;-64
2023/08/17 00:41:01;;;;;;;;;;;;;;;;;;5069832;28;19923;-64
2023/08/17 00:43:27;;;;;;;;;;;;;;;;;;5053615;28;19913;-64
2023/08/17 00:45:53;;;;;;;;;;;;;;;;;;5069496;28;19969;-64
2023/08/17 00:48:19;;;;;;;;;;;;;;;;;;5072010;28;19916;-64
2023/08/17 00:50:44;;;;;;;;;;;;;;;;;;5067579;28;20431;-64
2023/08/17 00:53:15;;;;;;;;;;;;;;;;;;5061687;28;19917;-64
2023/08/17 00:55:41;;;;;;;;;;;;;;;;;;5061118;28;20271;-64
2023/08/17 00:58:07;;;;;;;;;;;;;;;;;;5067177;28;19912;-64
2023/08/17 01:00:33;;;;;;;;;;;;;;;;;;5069776;28;19924;-64
2023/08/17 01:02:59;;;;;;;;;;;;;;;;;;5058518;28;19952;-64
2023/08/17 01:05:25;;;;;;;;;;;;;;;;;;5069501;28;19912;-64
2023/08/17 01:07:51;;;;;;;;;;;;;;;;;;5072509;28;20000;-64
2023/08/17 01:10:17;;;;;;;;;;;;;;;;;;5067730;28;19913;-64
2023/08/17 01:12:43;;;;;;;;;;;;;;;;;;5058859;28;20003;-64
2023/08/17 01:15:09;;;;;;;;;;;;;;;;;;5056514;28;19913;-64
2023/08/17 01:17:35;;;;;;;;;;;;;;;;;;5063311;28;19908;-64
2023/08/17 01:20:01;;;;;;;;;;;;;;;;;;5052205;28;19928;-64
2023/08/17 01:22:27;;;;;;;;;;;;;;;;;;5064125;28;20364;-64
2023/08/17 01:24:57;;;;;;;;;;;;;;;;;;5074629;28;19913;-64
2023/08/17 01:27:23;;;;;;;;;;;;;;;;;;5074790;28;20380;-64
2023/08/17 01:29:49;;;;;;;;;;;;;;;;;;5074693;28;19919;-64
2023/08/17 01:32:14;;;;;;;;;;;;;;;;;;5076396;28;20409;-64
2023/08/17 01:34:40;;;;;;;;;;;;;;;;;;5069858;28;19921;-64
2023/08/17 01:37:06;;;;;;;;;;;;;;;;;;5066400;28;20380;-64
2023/08/17 01:39:32;;;;;;;;;;;;;;;;;;5059240;28;20405;-65
2023/08/17 01:41:58;;;;;;;;;;;;;;;;;;5058022;28;19924;-64
2023/08/17 01:44:25;;;;;;;;;;;;;;;;;;5072483;28;20368;-64
2023/08/17 01:46:51;;;;;;;;;;;;;;;;;;5055850;28;20294;-60
2023/08/17 01:49:17;;;;;;;;;;;;;;;;;;5073480;28;19913;-60
2023/08/17 01:51:43;;;;;;;;;;;;;;;;;;5071354;28;20319;-59
2023/08/17 01:54:09;;;;;;;;;;;;;;;;;;5056650;28;19948;-61
2023/08/17 01:56:35;;;;;;;;;;;;;;;;;;5055827;28;19909;-61
2023/08/17 01:59:01;;;;;;;;;;;;;;;;;;5071922;28;19921;-60
2023/08/17 02:01:28;;;;;;;;;;;;;;;;;;5073294;28;20439;-59
2023/08/17 02:03:54;;;;;;;;;;;;;;;;;;5064777;28;20393;-59
2023/08/17 02:06:19;;;;;;;;;;;;;;;;;;5056170;28;20024;-60
2023/08/17 02:08:45;;;;;;;;;;;;;;;;;;5069830;28;19975;-59
2023/08/17 02:11:11;;;;;;;;;;;;;;;;;;5071892;28;19955;-60
2023/08/17 02:13:37;;;;;;;;;;;;;;;;;;5070408;28;19912;-60
2023/08/17 02:16:03;;;;;;;;;;;;;;;;;;5065629;28;20447;-59
2023/08/17 02:18:32;;;;;;;;;;;;;;;;;;5070562;28;19962;-61
2023/08/17 02:20:58;;;;;;;;;;;;;;;;;;5074035;28;19921;-60
2023/08/17 02:23:24;;;;;;;;;;;;;;;;;;5068248;28;19934;-60
2023/08/17 02:25:50;;;;;;;;;;;;;;;;;;5070553;28;20356;-60
2023/08/17 02:28:16;;;;;;;;;;;;;;;;;;5063246;28;19913;-60
2023/08/17 02:30:42;;;;;;;;;;;;;;;;;;5073691;28;19959;-60
2023/08/17 02:33:08;;;;;;;;;;;;;;;;;;5073480;28;20428;-59
2023/08/17 02:35:34;;;;;;;;;;;;;;;;;;5074820;28;19959;-59
2023/08/17 02:38:00;;;;;;;;;;;;;;;;;;5061482;28;20281;-59
2023/08/17 02:40:26;;;;;;;;;;;;;;;;;;5067499;28;19938;-59
2023/08/17 02:42:52;;;;;;;;;;;;;;;;;;5073087;28;19917;-60
2023/08/17 02:45:18;;;;;;;;;;;;;;;;;;5066434;28;20011;-59
2023/08/17 02:47:43;;;;;;;;;;;;;;;;;;5072289;28;19919;-63
2023/08/17 02:50:09;;;;;;;;;;;;;;;;;;5074370;28;20323;-63
2023/08/17 02:52:35;;;;;;;;;;;;;;;;;;5074607;28;20428;-63
2023/08/17 02:55:01;;;;;;;;;;;;;;;;;;5074915;28;20001;-63
2023/08/17 02:57:27;;;;;;;;;;;;;;;;;;5074828;28;20312;-63
2023/08/17 02:59:53;;;;;;;;;;;;;;;;;;5066798;28;20003;-63
2023/08/17 03:02:19;;;;;;;;;;;;;;;;;;5065852;28;19939;-63
2023/08/17 03:04:45;;;;;;;;;;;;;;;;;;5072018;28;20013;-63
2023/08/17 03:07:11;;;;;;;;;;;;;;;;;;5074485;28;20360;-63
2023/08/17 03:09:36;;;;;;;;;;;;;;;;;;5074257;28;19916;-63
2023/08/17 03:12:02;;;;;;;;;;;;;;;;;;5070495;28;20360;-63
2023/08/17 03:14:28;;;;;;;;;;;;;;;;;;5065529;28;19999;-63
2023/08/17 03:16:54;;;;;;;;;;;;;;;;;;5067024;28;19993;-63
2023/08/17 03:19:20;;;;;;;;;;;;;;;;;;5057553;28;19917;-63
2023/08/17 03:21:46;;;;;;;;;;;;;;;;;;5058612;28;19978;-63
2023/08/17 03:24:12;;;;;;;;;;;;;;;;;;5060123;28;20015;-63
2023/08/17 03:26:38;;;;;;;;;;;;;;;;;;5073491;28;19920;-63
2023/08/17 03:29:04;;;;;;;;;;;;;;;;;;5065092;28;19956;-63
2023/08/17 03:31:30;;;;;;;;;;;;;;;;;;5059440;28;20348;-63
2023/08/17 03:33:55;;;;;;;;;;;;;;;;;;5068410;28;19982;-63
2023/08/17 03:36:21;;;;;;;;;;;;;;;;;;5068174;28;19916;-63
2023/08/17 03:38:47;;;;;;;;;;;;;;;;;;5070951;28;19944;-62
2023/08/17 03:41:13;;;;;;;;;;;;;;;;;;5067298;28;20028;-63
2023/08/17 03:43:39;;;;;;;;;;;;;;;;;;5064346;28;20372;-63
2023/08/17 03:46:05;;;;;;;;;;;;;;;;;;5066600;28;19922;-63
2023/08/17 03:48:31;;;;;;;;;;;;;;;;;;5067826;28;19948;-63
2023/08/17 03:50:57;;;;;;;;;;;;;;;;;;5072345;28;19920;-63
2023/08/17 03:53:23;;;;;;;;;;;;;;;;;;5071681;28;19944;-63
2023/08/17 03:55:49;;;;;;;;;;;;;;;;;;5069421;28;19918;-63
2023/08/17 03:58:15;;;;;;;;;;;;;;;;;;5064632;28;19917;-70
2023/08/17 04:00:41;;;;;;;;;;;;;;;;;;5065972;28;20062;-68
2023/08/17 04:03:06;;;;;;;;;;;;;;;;;;5065707;28;20032;-70
2023/08/17 04:05:32;;;;;;;;;;;;;;;;;;5071675;28;19916;-70
2023/08/17 04:08:01;;;;;;;;;;;;;;;;;;5072354;28;19920;-63
2023/08/17 04:10:27;;;;;;;;;;;;;;;;;;5070795;28;19912;-63
2023/08/17 04:12:53;;;;;;;;;;;;;;;;;;5060685;28;19919;-63
2023/08/17 04:15:19;;;;;;;;;;;;;;;;;;5068569;28;20534;-63
2023/08/17 04:17:45;;;;;;;;;;;;;;;;;;5064229;28;20015;-63
2023/08/17 04:20:11;;;;;;;;;;;;;;;;;;5067140;28;20311;-62
2023/08/17 04:22:37;;;;;;;;;;;;;;;;;;5072395;28;20402;-63
2023/08/17 04:25:03;;;;;;;;;;;;;;;;;;5059278;28;19952;-63
2023/08/17 04:27:28;;;;;;;;;;;;;;;;;;5072322;28;19971;-63
2023/08/17 04:29:54;;;;;;;;;;;;;;;;;;5070915;28;20324;-63
2023/08/17 04:32:20;;;;;;;;;;;;;;;;;;5069206;28;20014;-63
2023/08/17 04:34:46;;;;;;;;;;;;;;;;;;5063108;28;19987;-63
2023/08/17 04:37:12;;;;;;;;;;;;;;;;;;5061523;28;20152;-63
2023/08/17 04:39:38;;;;;;;;;;;;;;;;;;5058895;28;19995;-63
2023/08/17 04:42:04;;;;;;;;;;;;;;;;;;5071594;28;19966;-63
2023/08/17 04:44:30;;;;;;;;;;;;;;;;;;5065626;28;19999;-63
2023/08/17 04:46:56;;;;;;;;;;;;;;;;;;5075388;28;19912;-63
2023/08/17 04:49:22;;;;;;;;;;;;;;;;;;5063376;28;19957;-63
2023/08/17 04:51:48;;;;;;;;;;;;;;;;;;5060868;28;20859;-63
2023/08/17 04:54:13;;;;;;;;;;;;;;;;;;5071683;28;19920;-63
2023/08/17 04:56:39;;;;;;;;;;;;;;;;;;5060189;28;20322;-63
2023/08/17 04:59:05;;;;;;;;;;;;;;;;;;5071606;28;20057;-63
2023/08/17 05:01:32;;;;;;;;;;;;;;;;;;5067197;28;20014;-63
2023/08/17 05:03:58;;;;;;;;;;;;;;;;;;5067308;28;19913;-63
2023/08/17 05:06:23;;;;;;;;;;;;;;;;;;5065219;28;19913;-63
2023/08/17 05:08:49;;;;;;;;;;;;;;;;;;5060078;28;19956;-70
2023/08/17 05:11:15;;;;;;;;;;;;;;;;;;5071163;28;19919;-69
2023/08/17 05:13:41;;;;;;;;;;;;;;;;;;5071625;28;19913;-70
2023/08/17 05:16:07;;;;;;;;;;;;;;;;;;5067557;28;19999;-68
2023/08/17 05:18:33;;;;;;;;;;;;;;;;;;5070975;28;19938;-63
2023/08/17 05:20:59;;;;;;;;;;;;;;;;;;5067337;28;19920;-63
2023/08/17 05:23:25;;;;;;;;;;;;;;;;;;5063428;28;19917;-63
2023/08/17 05:25:51;;;;;;;;;;;;;;;;;;5062473;28;19952;-63
2023/08/17 05:28:17;;;;;;;;;;;;;;;;;;5066047;28;20282;-63
2023/08/17 05:30:43;;;;;;;;;;;;;;;;;;5069610;28;19912;-63
2023/08/17 05:33:08;;;;;;;;;;;;;;;;;;5071100;28;19956;-63
2023/08/17 05:35:34;;;;;;;;;;;;;;;;;;5070449;28;20471;-63
2023/08/17 05:38:01;;;;;;;;;;;;;;;;;;5069022;28;20003;-63
2023/08/17 05:40:27;;;;;;;;;;;;;;;;;;5065571;28;19919;-63
2023/08/17 05:42:53;;;;;;;;;;;;;;;;;;5071183;28;19948;-63
2023/08/17 05:45:19;;;;;;;;;;;;;;;;;;5069948;28;20362;-63
2023/08/17 05:47:45;;;;;;;;;;;;;;;;;;5065102;28;19916;-63
2023/08/17 05:50:11;;;;;;;;;;;;;;;;;;5062717;28;19916;-63
2023/08/17 05:52:37;;;;;;;;;;;;;;;;;;5071081;28;19919;-63
2023/08/17 05:55:03;;;;;;;;;;;;;;;;;;5067898;28;20015;-63
2023/08/17 05:57:29;;;;;;;;;;;;;;;;;;5069119;28;20065;-63
2023/08/17 05:59:55;;;;;;;;;;;;;;;;;;5069737;28;20015;-63
2023/08/17 06:02:20;;;;;;;;;;;;;;;;;;5069768;28;20458;-63
2023/08/17 06:04:46;;;;;;;;;;;;;;;;;;5069881;28;20015;-64
2023/08/17 06:07:12;;;;;;;;;;;;;;;;;;5065191;28;19916;-63
2023/08/17 06:09:38;;;;;;;;;;;;;;;;;;5072280;28;19959;-63
2023/08/17 06:12:04;;;;;;;;;;;;;;;;;;5057962;28;19940;-63
2023/08/17 06:14:30;;;;;;;;;;;;;;;;;;5066352;28;19975;-63
2023/08/17 06:16:56;;;;;;;;;;;;;;;;;;5071273;28;19923;-63
2023/08/17 06:19:23;;;;;;;;;;;;;;;;;;5073910;28;20345;-60
2023/08/17 06:21:49;;;;;;;;;;;;;;;;;;5067670;28;19948;-58
2023/08/17 06:24:15;;;;;;;;;;;;;;;;;;5066953;28;19955;-59
2023/08/17 06:26:41;;;;;;;;;;;;;;;;;;5080349;28;19917;-59
2023/08/17 06:29:07;;;;;;;;;;;;;;;;;;5064295;28;19912;-63
2023/08/17 06:31:33;;;;;;;;;;;;;;;;;;5065592;28;19924;-63
2023/08/17 06:33:59;;;;;;;;;;;;;;;;;;5074319;28;20660;-63
2023/08/17 06:36:25;;;;;;;;;;;;;;;;;;5068240;28;20439;-63
2023/08/17 06:38:51;;;;;;;;;;;;;;;;;;5069628;28;20047;-63
2023/08/17 06:41:17;;;;;;;;;;;;;;;;;;5071187;28;19968;-63
2023/08/17 06:43:43;;;;;;;;;;;;;;;;;;5074142;28;19909;-63
2023/08/17 06:46:08;;;;;;;;;;;;;;;;;;5070649;28;20001;-63
2023/08/17 06:48:34;;;;;;;;;;;;;;;;;;5069580;28;20287;-64
2023/08/17 06:51:02;;;;;;;;;;;;;;;;;;5072471;28;19912;-65
2023/08/17 06:53:27;;;;;;;;;;;;;;;;;;5068689;28;19913;-64
2023/08/17 06:55:53;;;;;;;;;;;;;;;;;;5064491;28;20005;-65
2023/08/17 06:58:19;;;;;;;;;;;;;;;;;;5064126;28;19917;-64
2023/08/17 07:00:45;;;;;;;;;;;;;;;;;;5071314;28;20027;-64
2023/08/17 07:03:11;;;;;;;;;;;;;;;;;;5069424;28;19959;-65
2023/08/17 07:05:37;;;;;;;;;;;;;;;;;;5065233;28;19944;-65
2023/08/17 07:08:03;;;;;;;;;;;;;;;;;;5062623;28;19912;-65
2023/08/17 07:10:29;;;;;;;;;;;;;;;;;;5065560;28;19918;-65
2023/08/17 07:12:55;;;;;;;;;;;;;;;;;;5063740;28;20336;-65
2023/08/17 07:15:21;;;;;;;;;;;;;;;;;;5066286;28;19917;-65
2023/08/17 07:17:47;;;;;;;;;;;;;;;;;;5057822;28;20016;-65
2023/08/17 07:20:12;;;;;;;;;;;;;;;;;;5071590;28;20015;-65
2023/08/17 07:22:38;;;;;;;;;;;;;;;;;;5070052;28;19959;-65
2023/08/17 07:25:04;;;;;;;;;;;;;;;;;;5071149;28;19959;-65
2023/08/17 07:27:30;;;;;;;;;;;;;;;;;;5066104;28;19951;-65
2023/08/17 07:29:56;;;;;;;;;;;;;;;;;;5065156;28;20031;-65
2023/08/17 07:32:22;;;;;;;;;;;;;;;;;;5067774;28;19918;-65
2023/08/17 07:34:48;;;;;;;;;;;;;;;;;;5062210;28;19916;-65
2023/08/17 07:37:14;;;;;;;;;;;;;;;;;;5056899;28;20376;-63
2023/08/17 07:39:40;;;;;;;;;;;;;;;;;;5061789;28;19912;-63
2023/08/17 07:42:06;;;;;;;;;;;;;;;;;;5066781;28;20319;-63
2023/08/17 07:44:33;;;;;;;;;;;;;;;;;;5067887;28;19926;-63
2023/08/17 07:46:59;;;;;;;;;;;;;;;;;;5066381;28;19921;-63
2023/08/17 07:49:25;;;;;;;;;;;;;;;;;;5066447;28;19976;-63
2023/08/17 07:51:51;;;;;;;;;;;;;;;;;;5061625;28;19996;-63
2023/08/17 07:54:17;;;;;;;;;;;;;;;;;;5066571;28;19913;-64
2023/08/17 07:56:43;;;;;;;;;;;;;;;;;;5064542;28;20375;-63
2023/08/17 07:59:08;;;;;;;;;;;;;;;;;;5065405;28;20011;-64
2023/08/17 08:01:34;;;;;;;;;;;;;;;;;;5058505;28;19971;-63
2023/08/17 08:04:00;;;;;;;;;;;;;;;;;;5071994;28;19950;-63
2023/08/17 08:06:26;;;;;;;;;;;;;;;;;;5070824;28;19974;-63
2023/08/17 08:08:52;;;;;;;;;;;;;;;;;;5065811;28;19978;-64
2023/08/17 08:11:18;;;;;;;;;;;;;;;;;;5056455;28;19974;-64
2023/08/17 08:13:44;;;;;;;;;;;;;;;;;;5068193;28;19913;-64
2023/08/17 08:16:10;;;;;;;;;;;;;;;;;;5076187;28;20507;-63
2023/08/17 08:18:36;;;;;;;;;;;;;;;;;;5061386;28;20383;-63
2023/08/17 08:21:02;;;;;;;;;;;;;;;;;;5060435;28;19920;-63
2023/08/17 08:23:29;;;;;;;;;;;;;;;;;;5060025;28;19963;-63
2023/08/17 08:25:55;;;;;;;;;;;;;;;;;;5065431;28;20272;-64
2023/08/17 08:28:21;;;;;;;;;;;;;;;;;;5064506;28;19948;-63
2023/08/17 08:30:47;;;;;;;;;;;;;;;;;;5069320;28;19912;-63
2023/08/17 08:33:13;;;;;;;;;;;;;;;;;;5064388;28;20347;-64
2023/08/17 08:35:39;;;;;;;;;;;;;;;;;;5060057;28;19963;-63
2023/08/17 08:38:05;;;;;;;;;;;;;;;;;;5056948;28;19924;-65
2023/08/17 08:40:31;;;;;;;;;;;;;;;;;;5053430;28;20273;-65
2023/08/17 08:42:57;;;;;;;;;;;;;;;;;;5056547;28;19919;-65
2023/08/17 08:45:23;;;;;;;;;;;;;;;;;;5066793;28;19919;-65
2023/08/17 08:47:50;;;;;;;;;;;;;;;;;;5067140;28;20831;-64
2023/08/17 08:50:16;;;;;;;;;;;;;;;;;;5055974;28;20357;-63
2023/08/17 08:52:41;;;;;;;;;;;;;;;;;;5070459;28;19959;-63
2023/08/17 08:55:07;;;;;;;;;;;;;;;;;;5062486;28;20380;-63
2023/08/17 08:57:33;;;;;;;;;;;;;;;;;;5068193;28;20060;-64
2023/08/17 08:59:59;;;;;;;;;;;;;;;;;;5059354;28;20273;-64
2023/08/17 09:02:25;;;;;;;;;;;;;;;;;;5070974;28;20371;-64
2023/08/17 09:04:51;;;;;;;;;;;;;;;;;;5071678;28;19916;-63
2023/08/17 09:07:17;;;;;;;;;;;;;;;;;;5069943;28;19913;-63
2023/08/17 09:09:43;;;;;;;;;;;;;;;;;;5070436;28;19913;-64
2023/08/17 09:12:09;;;;;;;;;;;;;;;;;;5062774;28;19919;-64
2023/08/17 09:14:37;;;;;;;;;;;;;;;;;;5063702;28;19913;-64
2023/08/17 09:17:02;;;;;;;;;;;;;;;;;;5065005;28;19919;-64
2023/08/17 09:19:28;;;;;;;;;;;;;;;;;;5067641;28;19971;-64
2023/08/17 09:21:54;;;;;;;;;;;;;;;;;;5070429;28;19923;-64
2023/08/17 09:24:20;;;;;;;;;;;;;;;;;;5068751;28;19909;-63
2023/08/17 09:26:46;;;;;;;;;;;;;;;;;;5068822;28;19924;-63
2023/08/17 09:29:12;;;;;;;;;;;;;;;;;;5060052;28;19952;-64
2023/08/17 09:31:38;;;;;;;;;;;;;;;;;;5066262;28;19916;-64
2023/08/17 09:34:04;;;;;;;;;;;;;;;;;;5062809;28;19956;-64
2023/08/17 09:36:30;;;;;;;;;;;;;;;;;;5067342;28;20440;-64
2023/08/17 09:38:57;;;;;;;;;;;;;;;;;;5074133;28;19909;-64
2023/08/17 09:41:23;;;;;;;;;;;;;;;;;;5057087;28;20367;-64
2023/08/17 09:43:48;;;;;;;;;;;;;;;;;;5069183;28;19915;-63
2023/08/17 09:46:14;;;;;;;;;;;;;;;;;;5074574;28;19912;-64
2023/08/17 09:48:40;;;;;;;;;;;;;;;;;;5068763;28;19939;-63
2023/08/17 09:51:06;;;;;;;;;;;;;;;;;;5062799;28;19923;-64
2023/08/17 09:53:32;;;;;;;;;;;;;;;;;;5069519;28;20066;-64
2023/08/17 09:55:58;;;;;;;;;;;;;;;;;;5068489;28;19999;-63
2023/08/17 09:58:24;;;;;;;;;;;;;;;;;;5056402;28;19916;-64
2023/08/17 10:00:50;;;;;;;;;;;;;;;;;;5070730;28;19916;-64
2023/08/17 10:03:16;;;;;;;;;;;;;;;;;;5071345;28;19908;-64
2023/08/17 10:05:42;;;;;;;;;;;;;;;;;;5068684;28;19921;-64
2023/08/17 10:08:08;;;;;;;;;;;;;;;;;;5074467;28;20379;-64
2023/08/17 10:10:34;;;;;;;;;;;;;;;;;;5069721;28;19918;-64
2023/08/17 10:13:00;;;;;;;;;;;;;;;;;;5071760;28;20291;-64
2023/08/17 10:15:26;;;;;;;;;;;;;;;;;;5074734;28;19913;-63
2023/08/17 10:17:52;;;;;;;;;;;;;;;;;;5073695;28;20063;-64
2023/08/17 10:20:18;;;;;;;;;;;;;;;;;;5065053;28;19956;-64
2023/08/17 10:22:44;;;;;;;;;;;;;;;;;;5070019;28;20368;-64
2023/08/17 10:25:11;;;;;;;;;;;;;;;;;;5072953;28;20225;-64
2023/08/17 10:27:37;;;;;;;;;;;;;;;;;;5066628;28;20015;-64
2023/08/17 10:30:03;;;;;;;;;;;;;;;;;;5072875;28;19952;-64
2023/08/17 10:32:29;;;;;;;;;;;;;;;;;;5070219;28;19987;-64
2023/08/17 10:34:55;;;;;;;;;;;;;;;;;;5068185;28;19951;-64
2023/08/17 10:37:21;;;;;;;;;;;;;;;;;;5066789;28;19917;-63
2023/08/17 10:39:47;;;;;;;;;;;;;;;;;;5061439;28;19913;-63
2023/08/17 10:42:13;;;;;;;;;;;;;;;;;;5074226;28;19944;-64
2023/08/17 10:44:40;;;;;;;;;;;;;;;;;;5074133;28;19991;-64
2023/08/17 10:47:06;;;;;;;;;;;;;;;;;;5072773;28;19923;-63
2023/08/17 10:49:32;;;;;;;;;;;;;;;;;;5073629;28;19921;-62
2023/08/17 10:51:57;;;;;;;;;;;;;;;;;;5063062;28;19934;-62
2023/08/17 10:54:23;;;;;;;;;;;;;;;;;;5068278;28;20001;-62
2023/08/17 10:56:49;;;;;;;;;;;;;;;;;;5071674;28;19912;-62
2023/08/17 10:59:15;;;;;;;;;;;;;;;;;;5074006;28;19919;-58
2023/08/17 11:01:41;;;;;;;;;;;;;;;;;;5068587;28;19967;-57
2023/08/17 11:04:07;;;;;;;;;;;;;;;;;;5063831;28;20424;-58
2023/08/17 11:06:33;;;;;;;;;;;;;;;;;;5070585;28;19999;-59
2023/08/17 11:08:59;;;;;;;;;;;;;;;;;;5068176;28;19999;-62
2023/08/17 11:11:25;;;;;;;;;;;;;;;;;;5062831;28;20384;-62
2023/08/17 11:13:51;;;;;;;;;;;;;;;;;;5060125;28;19975;-62
2023/08/17 11:16:19;;;;;;;;;;;;;;;;;;5062022;28;20420;-63
2023/08/17 11:18:45;;;;;;;;;;;;;;;;;;5064260;28;19920;-62
2023/08/17 11:21:11;;;;;;;;;;;;;;;;;;5061989;28;19963;-62
2023/08/17 11:23:37;;;;;;;;;;;;;;;;;;5067690;28;20066;-62
2023/08/17 11:26:02;;;;;;;;;;;;;;;;;;5064348;28;19951;-62
2023/08/17 11:28:33;;;;;;;;;;;;;;;;;;5067613;28;19917;-62
2023/08/17 11:30:59;;;;;;;;;;;;;;;;;;5063203;28;19916;-62
2023/08/17 11:33:25;;;;;;;;;;;;;;;;;;5061630;28;19912;-62
2023/08/17 11:35:51;;;;;;;;;;;;;;;;;;5062081;28;19920;-64
2023/08/17 11:38:17;;;;;;;;;;;;;;;;;;5067945;28;20086;-62
2023/08/17 11:40:43;;;;;;;;;;;;;;;;;;5068775;28;19917;-64
2023/08/17 11:43:09;;;;;;;;;;;;;;;;;;5064701;28;19917;-61
2023/08/17 11:45:34;;;;;;;;;;;;;;;;;;5068951;28;20441;-64
2023/08/17 11:48:00;;;;;;;;;;;;;;;;;;5064577;28;19954;-64
2023/08/17 11:50:26;;;;;;;;;;;;;;;;;;5070012;28;19992;-65
2023/08/17 11:52:52;;;;;;;;;;;;;;;;;;5067991;28;19948;-64
2023/08/17 11:55:19;;;;;;;;;;;;;;;;;;5068156;28;20296;-64
2023/08/17 11:57:45;;;;;;;;;;;;;;;;;;5062992;28;20256;-64
2023/08/17 12:00:12;;;;;;;;;;;;;;;;;;5067889;28;19967;-64
2023/08/17 12:02:42;;;;;;;;;;;;;;;;;;5065936;28;19977;-64
2023/08/17 12:05:09;;;;;;;;;;;;;;;;;;5066709;28;19920;-62
2023/08/17 12:07:35;;;;;;;;;;;;;;;;;;5063259;28;19917;-64
2023/08/17 12:10:01;;;;;;;;;;;;;;;;;;5064996;28;19951;-62
2023/08/17 12:12:28;;;;;;;;;;;;;;;;;;5066566;28;20009;-62
2023/08/17 12:14:54;;;;;;;;;;;;;;;;;;5064858;28;20291;-63
2023/08/17 12:17:20;;;;;;;;;;;;;;;;;;5066959;28;19948;-67
2023/08/17 12:19:46;;;;;;;;;;;;;;;;;;5065765;28;19928;-66
2023/08/17 12:22:11;;;;;;;;;;;;;;;;;;5070596;28;20440;-68
2023/08/17 12:24:37;;;;;;;;;;;;;;;;;;5064237;28;20384;-66
2023/08/17 12:27:03;;;;;;;;;;;;;;;;;;5062927;28;19995;-67
2023/08/17 12:29:29;;;;;;;;;;;;;;;;;;5065880;28;20014;-64
2023/08/17 12:31:55;;;;;;;;;;;;;;;;;;5066874;28;19966;-67
2023/08/17 12:34:21;;;;;;;;;;;;;;;;;;5063536;28;20772;-68
2023/08/17 12:36:47;;;;;;;;;;;;;;;;;;5063910;28;19924;-67
2023/08/17 12:39:13;;;;;;;;;;;;;;;;;;5069076;28;20292;-67
2023/08/17 12:41:39;;;;;;;;;;;;;;;;;;5062941;28;19934;-68
2023/08/17 12:44:05;;;;;;;;;;;;;;;;;;5066983;28;20399;-66
2023/08/17 12:46:32;;;;;;;;;;;;;;;;;;5061240;28;19966;-68
2023/08/17 12:48:58;;;;;;;;;;;;;;;;;;5060373;28;20244;-67
2023/08/17 12:51:24;;;;;;;;;;;;;;;;;;5063084;28;20400;-66
2023/08/17 12:53:50;;;;;;;;;;;;;;;;;;5068459;28;19959;-67
2023/08/17 12:56:16;;;;;;;;;;;;;;;;;;5069203;28;19916;-66
2023/08/17 12:58:42;;;;;;;;;;;;;;;;;;5063174;28;19974;-68
2023/08/17 13:01:08;;;;;;;;;;;;;;;;;;5059285;28;19966;-67
2023/08/17 13:03:34;;;;;;;;;;;;;;;;;;5063989;28;19922;-65
2023/08/17 13:06:00;;;;;;;;;;;;;;;;;;5065165;28;19952;-69
2023/08/17 13:08:26;;;;;;;;;;;;;;;;;;5069061;28;20029;-67
2023/08/17 13:10:52;;;;;;;;;;;;;;;;;;5063219;28;20347;-66
2023/08/17 13:13:18;;;;;;;;;;;;;;;;;;5062593;28;20025;-67
2023/08/17 13:15:44;;;;;;;;;;;;;;;;;;5059442;28;19921;-66
2023/08/17 13:18:10;;;;;;;;;;;;;;;;;;5066058;28;19947;-58
2023/08/17 13:20:36;;;;;;;;;;;;;;;;;;5061369;28;19924;-58
2023/08/17 13:23:02;;;;;;;;;;;;;;;;;;5064840;28;20338;-59
2023/08/17 13:25:28;;;;;;;;;;;;;;;;;;5065988;28;19924;-58
2023/08/17 13:27:54;;;;;;;;;;;;;;;;;;5065622;28;20008;-62
2023/08/17 13:30:21;;;;;;;;;;;;;;;;;;5069617;28;19912;-62
2023/08/17 13:32:46;;;;;;;;;;;;;;;;;;5069964;28;20384;-62
2023/08/17 13:35:12;;;;;;;;;;;;;;;;;;5062031;28;19955;-63
2023/08/17 13:37:38;;;;;;;;;;;;;;;;;;5061080;28;19921;-62
2023/08/17 13:40:04;;;;;;;;;;;;;;;;;;5060987;28;20020;-62
2023/08/17 13:42:30;;;;;;;;;;;;;;;;;;5058759;28;20345;-63
2023/08/17 13:44:56;;;;;;;;;;;;;;;;;;5059538;28;19913;-63
2023/08/17 13:47:22;;;;;;;;;;;;;;;;;;5069430;28;19952;-63
2023/08/17 13:49:48;;;;;;;;;;;;;;;;;;5062179;28;19952;-63
2023/08/17 13:52:14;;;;;;;;;;;;;;;;;;5066035;28;19920;-63
2023/08/17 13:54:40;;;;;;;;;;;;;;;;;;5070016;28;19947;-63
2023/08/17 13:57:06;;;;;;;;;;;;;;;;;;5064040;28;19967;-63
2023/08/17 13:59:32;;;;;;;;;;;;;;;;;;5066120;28;19960;-63
2023/08/17 14:01:58;;;;;;;;;;;;;;;;;;5061402;28;20295;-63
2023/08/17 14:04:24;;;;;;;;;;;;;;;;;;5064011;28;19923;-63
2023/08/17 14:06:51;;;;;;;;;;;;;;;;;;5066869;28;20368;-62
2023/08/17 14:09:17;;;;;;;;;;;;;;;;;;5065984;28;20373;-62
2023/08/17 14:11:43;;;;;;;;;;;;;;;;;;5060463;28;19966;-63
2023/08/17 14:14:09;;;;;;;;;;;;;;;;;;5063519;28;19948;-62
2023/08/17 14:16:34;;;;;;;;;;;;;;;;;;5065273;28;19963;-62
2023/08/17 14:19:00;;;;;;;;;;;;;;;;;;5067331;28;19959;-62
2023/08/17 14:21:26;;;;;;;;;;;;;;;;;;5063210;28;20365;-63
2023/08/17 14:23:52;;;;;;;;;;;;;;;;;;5068373;28;19916;-63
2023/08/17 14:26:18;;;;;;;;;;;;;;;;;;5059328;28;19986;-63
2023/08/17 14:28:44;;;;;;;;;;;;;;;;;;5062798;28;19920;-63
2023/08/17 14:31:15;;;;;;;;;;;;;;;;;;5059244;28;19916;-63
2023/08/17 14:33:41;;;;;;;;;;;;;;;;;;5063603;28;20245;-63
2023/08/17 14:36:07;;;;;;;;;;;;;;;;;;5068136;28;20037;-63
2023/08/17 14:38:35;;;;;;;;;;;;;;;;;;5070106;28;19958;-67
2023/08/17 14:41:04;;;;;;;;;;;;;;;;;;5066981;28;19929;-67
2023/08/17 14:43:30;;;;;;;;;;;;;;;;;;5069226;28;20323;-67
2023/08/17 14:45:56;;;;;;;;;;;;;;;;;;5071199;28;19947;-67
2023/08/17 14:48:21;;;;;;;;;;;;;;;;;;5070609;28;19921;-66
2023/08/17 14:50:47;;;;;;;;;;;;;;;;;;5067591;28;19959;-67
2023/08/17 14:53:13;;;;;;;;;;;;;;;;;;5068164;28;20287;-66
2023/08/17 14:55:39;;;;;;;;;;;;;;;;;;5064725;28;19924;-67
2023/08/17 14:58:05;;;;;;;;;;;;;;;;;;5066209;28;20010;-66
2023/08/17 15:00:31;;;;;;;;;;;;;;;;;;5071507;28;20054;-67
2023/08/17 15:02:57;;;;;;;;;;;;;;;;;;5064000;28;19919;-66
2023/08/17 15:05:23;;;;;;;;;;;;;;;;;;5060147;28;20058;-66
2023/08/17 15:07:49;;;;;;;;;;;;;;;;;;5068524;28;20014;-67
2023/08/17 15:10:15;;;;;;;;;;;;;;;;;;5071053;28;19918;-65
2023/08/17 15:12:41;;;;;;;;;;;;;;;;;;5069605;28;19948;-67
2023/08/17 15:15:07;;;;;;;;;;;;;;;;;;5073152;28;19959;-66
2023/08/17 15:17:33;;;;;;;;;;;;;;;;;;5068922;28;19954;-65
2023/08/17 15:19:58;;;;;;;;;;;;;;;;;;5060083;28;19925;-64
2023/08/17 15:22:26;;;;;;;;;;;;;;;;;;5065493;28;21538;-66
2023/08/17 15:24:52;;;;;;;;;;;;;;;;;;5070866;28;20380;-67
2023/08/17 15:27:18;;;;;;;;;;;;;;;;;;5066099;28;19966;-67
2023/08/17 15:29:44;;;;;;;;;;;;;;;;;;5069277;28;19916;-66
2023/08/17 15:32:10;;;;;;;;;;;;;;;;;;5070255;28;19919;-63
2023/08/17 15:34:36;;;;;;;;;;;;;;;;;;5070819;28;19916;-66
2023/08/17 15:37:01;;;;;;;;;;;;;;;;;;5072075;28;19985;-66
2023/08/17 15:39:27;;;;;;;;;;;;;;;;;;5064627;28;19919;-66
2023/08/17 15:41:53;;;;;;;;;;;;;;;;;;5068948;28;20368;-66
2023/08/17 15:44:19;;;;;;;;;;;;;;;;;;5066235;28;19993;-67
2023/08/17 15:46:45;;;;;;;;;;;;;;;;;;5063768;28;20253;-66
2023/08/17 15:49:14;;;;;;;;;;;;;;;;;;5069986;28;19917;-65
2023/08/17 15:51:40;;;;;;;;;;;;;;;;;;5065604;28;19913;-66
2023/08/17 15:54:06;;;;;;;;;;;;;;;;;;5072801;28;19970;-66
2023/08/17 15:56:32;;;;;;;;;;;;;;;;;;5070946;28;19947;-66
2023/08/17 15:58:58;;;;;;;;;;;;;;;;;;5062181;28;20007;-66
2023/08/17 16:01:24;;;;;;;;;;;;;;;;;;5057609;28;20028;-66
2023/08/17 16:03:50;;;;;;;;;;;;;;;;;;5063323;28;20495;-67
2023/08/17 16:06:16;;;;;;;;;;;;;;;;;;5070695;28;19993;-67
2023/08/17 16:08:42;;;;;;;;;;;;;;;;;;5064360;28;19916;-67
2023/08/17 16:11:08;;;;;;;;;;;;;;;;;;5065010;28;20486;-67
2023/08/17 16:13:34;;;;;;;;;;;;;;;;;;5069314;28;19913;-69
2023/08/17 16:15:59;;;;;;;;;;;;;;;;;;5071320;28;20007;-67
2023/08/17 16:18:25;;;;;;;;;;;;;;;;;;5065714;28;20360;-66
2023/08/17 16:20:51;;;;;;;;;;;;;;;;;;5066261;28;19922;-69
2023/08/17 16:23:19;;;;;;;;;;;;;;;;;;5070076;28;19947;-68
2023/08/17 16:25:45;;;;;;;;;;;;;;;;;;5066121;28;19944;-69
2023/08/17 16:28:11;;;;;;;;;;;;;;;;;;5066461;28;20375;-69
2023/08/17 16:30:39;;;;;;;;;;;;;;;;;;5063744;28;20069;-68
2023/08/17 16:33:05;;;;;;;;;;;;;;;;;;5065420;28;19931;-68
2023/08/17 16:35:31;;;;;;;;;;;;;;;;;;5062221;28;19940;-69
2023/08/17 16:37:56;;;;;;;;;;;;;;;;;;5061063;28;19959;-67